createdAt,value
2022-08-28T00:00:31.313Z,97534.55
2022-08-28T00:03:09.564Z,97534.91
2022-08-28T00:05:39.847Z,97534.39
2022-08-28T00:08:10.483Z,97535.60
2022-08-28T00:10:40.208Z,97534.96
2022-08-28T00:13:18.644Z,97532.33
2022-08-28T00:17:02.368Z,97534.83
2022-08-28T00:19:31.138Z,97528.84
2022-08-28T00:22:00.823Z,97530.69
2022-08-28T00:24:28.993Z,97533.56
2022-08-28T00:27:15.704Z,97533.71
2022-08-28T00:29:47.104Z,97531.33
2022-08-28T00:32:15.199Z,97527.19
2022-08-28T00:34:43.208Z,97526.65
2022-08-28T00:37:11.759Z,97523.40
2022-08-28T00:39:39.722Z,97520.23
2022-08-28T00:42:08.809Z,97520.09
2022-08-28T00:44:36.966Z,97515.89
2022-08-28T00:47:05.043Z,97512.38
2022-08-28T00:49:37.642Z,97511.88
2022-08-28T00:52:12.173Z,97508.23
2022-08-28T00:54:58.606Z,97504.13
2022-08-28T00:57:36.356Z,97503.41
2022-08-28T01:00:12.111Z,97501.41
2022-08-28T01:02:40.894Z,97499.41
2022-08-28T01:05:10.002Z,97501.61
2022-08-28T01:07:38.905Z,97496.07
2022-08-28T01:10:12.451Z,97498.27
2022-08-28T01:12:41.101Z,97496.73
2022-08-28T01:15:14.036Z,97495.01
2022-08-28T01:17:48.139Z,97497.27
2022-08-28T01:20:21.250Z,97496.14
2022-08-28T01:23:08.090Z,97503.58
2022-08-28T01:25:38.277Z,97507.59
2022-08-28T01:28:12.757Z,97511.42
2022-08-28T01:30:44.700Z,97510.00
2022-08-28T01:33:15.910Z,97511.19
2022-08-28T01:35:47.883Z,97506.31
2022-08-28T01:38:19.579Z,97506.84
2022-08-28T01:40:52.642Z,97512.03
2022-08-28T01:43:24.217Z,97509.88
2022-08-28T01:46:03.023Z,97511.75
2022-08-28T01:48:35.127Z,97514.11
2022-08-28T01:51:04.915Z,97517.86
2022-08-28T01:53:33.599Z,97522.84
2022-08-28T01:56:04.928Z,97521.42
2022-08-28T01:58:37.896Z,97523.98
2022-08-28T02:01:12.198Z,97525.19
2022-08-28T02:03:40.588Z,97524.60
2022-08-28T02:06:08.877Z,97523.66
2022-08-28T02:08:37.243Z,97529.20
2022-08-28T02:11:07.576Z,97535.54
2022-08-28T02:13:37.373Z,97540.26
2022-08-28T02:16:09.075Z,97540.23
2022-08-28T02:18:38.111Z,97534.46
2022-08-28T02:21:07.694Z,97525.93
2022-08-28T02:23:39.015Z,97531.35
2022-08-28T02:26:07.851Z,97530.44
2022-08-28T02:28:36.872Z,97531.57
2022-08-28T02:31:08.458Z,97530.72
2022-08-28T02:33:41.764Z,97530.23
2022-08-28T02:36:12.824Z,97535.70
2022-08-28T02:38:41.540Z,97533.08
2022-08-28T02:41:10.409Z,97537.46
2022-08-28T02:43:39.638Z,97535.34
2022-08-28T02:46:07.860Z,97537.52
2022-08-28T02:48:38.217Z,97534.61
2022-08-28T02:51:10.292Z,97527.77
2022-08-28T02:53:39.305Z,97538.04
2022-08-28T02:56:08.132Z,97536.81
2022-08-28T02:58:36.482Z,97531.41
2022-08-28T03:01:07.645Z,97534.67
2022-08-28T03:03:35.743Z,97538.36
2022-08-28T03:06:06.543Z,97534.67
2022-08-28T03:08:34.567Z,97540.40
2022-08-28T03:11:02.528Z,97538.65
2022-08-28T03:13:30.823Z,97536.30
2022-08-28T03:15:59.307Z,97532.25
2022-08-28T03:18:30.309Z,97531.73
2022-08-28T03:20:59.201Z,97526.26
2022-08-28T03:23:27.319Z,97529.05
2022-08-28T03:26:09.067Z,97522.84
2022-08-28T03:28:43.604Z,97520.14
2022-08-28T03:31:15.571Z,97521.48
2022-08-28T03:33:44.750Z,97520.93
2022-08-28T03:36:17.793Z,97525.98
2022-08-28T03:38:46.129Z,97522.52
2022-08-28T03:41:17.269Z,97527.97
2022-08-28T03:43:45.572Z,97531.52
2022-08-28T03:46:21.366Z,97528.33
2022-08-28T03:48:50.483Z,97536.52
2022-08-28T03:51:29.200Z,97545.92
2022-08-28T03:53:59.400Z,97547.25
2022-08-28T03:56:30.212Z,97547.10
2022-08-28T03:59:01.555Z,97549.77
2022-08-28T04:01:29.695Z,97558.49
2022-08-28T04:03:57.934Z,97574.39
2022-08-28T04:06:26.067Z,97577.64
2022-08-28T04:08:54.148Z,97580.23
2022-08-28T04:11:22.544Z,97586.46
2022-08-28T04:13:50.853Z,97587.69
2022-08-28T04:16:19.729Z,97583.70
2022-08-28T04:18:49.510Z,97586.63
2022-08-28T04:21:20.997Z,97586.39
2022-08-28T04:23:48.993Z,97588.70
2022-08-28T04:26:20.746Z,97590.90
2022-08-28T04:28:49.958Z,97591.80
2022-08-28T04:31:32.497Z,97590.88
2022-08-28T04:34:02.555Z,97595.59
2022-08-28T04:36:31.064Z,97594.48
2022-08-28T04:38:59.870Z,97598.41
2022-08-28T04:41:29.060Z,97598.17
2022-08-28T04:43:57.827Z,97603.48
2022-08-28T04:46:26.059Z,97606.14
2022-08-28T04:48:55.433Z,97606.89
2022-08-28T04:51:23.328Z,97610.51
2022-08-28T04:53:51.193Z,97605.20
2022-08-28T04:56:19.106Z,97598.57
2022-08-28T04:58:48.256Z,97595.06
2022-08-28T05:01:20.141Z,97592.60
2022-08-28T05:03:52.531Z,97593.82
2022-08-28T05:06:21.922Z,97590.06
2022-08-28T05:08:50.279Z,97589.12
2022-08-28T05:11:30.751Z,97586.18
2022-08-28T05:14:15.820Z,97577.50
2022-08-28T05:16:50.823Z,97578.06
2022-08-28T05:19:20.640Z,97579.59
2022-08-28T05:21:48.556Z,97583.08
2022-08-28T05:24:16.987Z,97585.27
2022-08-28T05:26:48.132Z,97585.86
2022-08-28T05:29:17.086Z,97579.85
2022-08-28T05:31:46.315Z,97577.63
2022-08-28T05:34:15.354Z,97586.66
2022-08-28T05:36:43.376Z,97580.76
2022-08-28T05:39:13.713Z,97577.13
2022-08-28T05:41:44.513Z,97575.45
2022-08-28T05:44:15.513Z,97572.73
2022-08-28T05:46:46.942Z,97577.59
2022-08-28T05:49:15.941Z,97576.96
2022-08-28T05:51:44.266Z,97577.02
2022-08-28T05:54:12.564Z,97573.52
2022-08-28T05:56:42.317Z,97575.01
2022-08-28T05:59:11.209Z,97572.54
2022-08-28T06:01:42.650Z,97573.14
2022-08-28T06:04:14.690Z,97573.22
2022-08-28T06:06:42.854Z,97572.09
2022-08-28T06:09:28.998Z,97572.89
2022-08-28T06:12:00.028Z,97574.13
2022-08-28T06:14:28.209Z,97573.63
2022-08-28T06:16:56.894Z,97578.38
2022-08-28T06:19:26.821Z,97579.22
2022-08-28T06:21:57.488Z,97581.35
2022-08-28T06:24:27.660Z,97579.09
2022-08-28T06:26:58.576Z,97581.98
2022-08-28T06:29:28.294Z,97580.11
2022-08-28T06:32:01.572Z,97576.19
2022-08-28T06:34:30.077Z,97576.00
2022-08-28T06:36:58.172Z,97570.80
2022-08-28T06:39:26.154Z,97570.00
2022-08-28T06:41:54.256Z,97566.43
2022-08-28T06:44:22.930Z,97569.38
2022-08-28T06:46:53.393Z,97570.61
2022-08-28T06:49:21.439Z,97576.49
2022-08-28T06:51:49.917Z,97578.76
2022-08-28T06:54:22.324Z,97575.14
2022-08-28T06:56:52.458Z,97575.02
2022-08-28T06:59:21.049Z,97575.64
2022-08-28T07:01:49.506Z,97577.83
2022-08-28T07:04:17.712Z,97574.75
2022-08-28T07:06:46.994Z,97570.48
2022-08-28T07:09:16.536Z,97573.27
2022-08-28T07:11:48.843Z,97573.76
2022-08-28T07:14:17.353Z,97580.92
2022-08-28T07:16:45.318Z,97583.71
2022-08-28T07:19:13.799Z,97580.70
2022-08-28T07:21:44.406Z,97580.66
2022-08-28T07:24:14.857Z,97579.36
2022-08-28T07:26:44.878Z,97576.58
2022-08-28T07:29:13.111Z,97573.20
2022-08-28T07:31:47.246Z,97568.19
2022-08-28T07:34:17.276Z,97561.23
2022-08-28T07:36:45.881Z,97560.31
2022-08-28T07:39:15.603Z,97561.30
2022-08-28T07:41:44.314Z,97562.84
2022-08-28T07:44:33.022Z,97561.17
2022-08-28T07:47:04.569Z,97564.08
2022-08-28T07:49:34.602Z,97566.68
2022-08-28T07:52:03.593Z,97567.23
2022-08-28T07:54:31.756Z,97569.52
2022-08-28T07:56:59.775Z,97571.64
2022-08-28T07:59:31.579Z,97570.30
2022-08-28T08:02:06.453Z,97569.29
2022-08-28T08:04:35.393Z,97570.63
2022-08-28T08:07:04.898Z,97569.22
2022-08-28T08:09:38.284Z,97570.64
2022-08-28T08:12:08.046Z,97573.40
2022-08-28T08:14:39.935Z,97573.24
2022-08-28T08:17:08.962Z,97573.16
2022-08-28T08:19:37.527Z,97574.43
2022-08-28T08:22:05.703Z,97575.70
2022-08-28T08:24:33.803Z,97578.30
2022-08-28T08:27:03.156Z,97574.05
2022-08-28T08:29:35.966Z,97578.90
2022-08-28T08:32:10.905Z,97583.15
2022-08-28T08:34:41.982Z,97583.70
2022-08-28T08:37:12.848Z,97588.34
2022-08-28T08:39:42.659Z,97587.95
2022-08-28T08:42:32.332Z,97587.40
2022-08-28T08:45:04.420Z,97590.91
2022-08-28T08:47:50.099Z,97594.52
2022-08-28T08:50:35.708Z,97591.05
2022-08-28T08:53:14.176Z,97590.81
2022-08-28T08:55:51.169Z,97590.23
2022-08-28T08:58:31.849Z,97598.86
2022-08-28T09:01:20.377Z,97596.81
2022-08-28T09:04:04.817Z,97592.60
2022-08-28T09:06:46.750Z,97594.54
2022-08-28T09:09:26.793Z,97594.05
2022-08-28T09:11:57.382Z,97598.87
2022-08-28T09:14:57.733Z,97600.88
2022-08-28T09:17:48.043Z,97602.90
2022-08-28T09:20:20.282Z,97608.48
2022-08-28T09:23:00.864Z,97613.38
2022-08-28T09:25:51.547Z,97614.19
2022-08-28T09:28:28.382Z,97618.44
2022-08-28T09:31:07.648Z,97623.33
2022-08-28T09:33:44.991Z,97626.06
2022-08-28T09:36:36.565Z,97627.33
2022-08-28T09:39:22.531Z,97634.63
2022-08-28T09:42:38.276Z,97635.73
2022-08-28T09:45:21.222Z,97635.57
2022-08-28T09:47:50.821Z,97632.65
2022-08-28T09:50:24.526Z,97633.34
2022-08-28T09:52:56.272Z,97629.63
2022-08-28T09:55:30.769Z,97625.33
2022-08-28T09:57:59.376Z,97623.40
2022-08-28T10:00:34.254Z,97621.09
2022-08-28T10:03:18.225Z,97621.48
2022-08-28T10:06:04.121Z,97621.39
2022-08-28T10:08:41.126Z,97623.90
2022-08-28T10:11:24.237Z,97623.23
2022-08-28T10:14:49.021Z,97625.13
2022-08-28T10:17:26.126Z,97621.77
2022-08-28T10:20:10.670Z,97618.55
2022-08-28T10:22:52.245Z,97622.08
2022-08-28T10:25:59.670Z,97619.73
2022-08-28T10:28:56.899Z,97620.85
2022-08-28T10:31:55.012Z,97623.67
2022-08-28T10:34:25.979Z,97619.77
2022-08-28T10:37:17.840Z,97615.25
2022-08-28T10:40:04.747Z,97619.51
2022-08-28T10:42:48.605Z,97617.33
2022-08-28T10:45:21.771Z,97619.81
2022-08-28T10:48:53.450Z,97615.47
2022-08-28T10:51:54.355Z,97615.66
2022-08-28T10:54:50.817Z,97614.38
2022-08-28T10:57:39.779Z,97615.27
2022-08-28T11:00:15.786Z,97611.71
2022-08-28T11:02:51.685Z,97614.19
2022-08-28T11:05:23.449Z,97612.52
2022-08-28T11:08:27.819Z,97611.48
2022-08-28T11:10:58.817Z,97611.27
2022-08-28T11:13:48.690Z,97607.94
2022-08-28T11:16:45.690Z,97609.13
2022-08-28T11:19:32.373Z,97607.80
2022-08-28T11:22:10.689Z,97605.35
2022-08-28T11:24:52.684Z,97607.29
2022-08-28T11:27:36.126Z,97602.23
2022-08-28T11:30:09.933Z,97602.14
2022-08-28T11:32:57.702Z,97603.17
2022-08-28T11:35:37.284Z,97603.09
2022-08-28T11:38:05.969Z,97603.45
2022-08-28T11:40:34.017Z,97600.90
2022-08-28T11:43:17.035Z,97598.21
2022-08-28T11:45:50.849Z,97595.60
2022-08-28T11:48:33.773Z,97594.30
2022-08-28T11:51:28.161Z,97589.42
2022-08-28T11:54:35.027Z,97586.48
2022-08-28T11:57:05.687Z,97588.39
2022-08-28T11:59:49.441Z,97590.07
2022-08-28T12:02:44.375Z,97589.77
2022-08-28T12:05:32.434Z,97584.64
2022-08-28T12:08:03.070Z,97586.64
2022-08-28T12:10:32.892Z,97584.50
2022-08-28T12:13:07.463Z,97582.61
2022-08-28T12:15:35.501Z,97582.27
2022-08-28T12:18:11.177Z,97586.48
2022-08-28T12:21:01.517Z,97582.73
2022-08-28T12:23:29.508Z,97585.70
2022-08-28T12:26:08.833Z,97585.60
2022-08-28T12:28:50.536Z,97586.24
2022-08-28T12:31:53.355Z,97583.91
2022-08-28T12:34:43.801Z,97578.61
2022-08-28T12:37:51.553Z,97582.34
2022-08-28T12:40:23.804Z,97578.13
2022-08-28T12:43:01.441Z,97579.44
2022-08-28T12:45:37.282Z,97580.49
2022-08-28T12:48:33.598Z,97580.68
2022-08-28T12:51:37.977Z,97579.70
2022-08-28T12:54:08.394Z,97578.49
2022-08-28T12:56:40.253Z,97575.69
2022-08-28T12:59:32.821Z,97570.58
2022-08-28T13:02:06.816Z,97563.42
2022-08-28T13:05:01.099Z,97553.25
2022-08-28T13:07:37.056Z,97555.00
2022-08-28T13:10:19.940Z,97558.27
2022-08-28T13:12:58.809Z,97562.56
2022-08-28T13:15:47.977Z,97570.22
2022-08-28T13:18:36.021Z,97572.84
2022-08-28T13:21:13.473Z,97571.61
2022-08-28T13:23:41.585Z,97577.27
2022-08-28T13:26:11.128Z,97579.36
2022-08-28T13:28:42.611Z,97581.37
2022-08-28T13:31:40.233Z,97584.31
2022-08-28T13:34:17.364Z,97579.45
2022-08-28T13:36:54.541Z,97577.85
2022-08-28T13:39:23.109Z,97571.52
2022-08-28T13:41:55.840Z,97571.42
2022-08-28T13:44:29.733Z,97573.38
2022-08-28T13:47:00.007Z,97578.47
2022-08-28T13:49:28.762Z,97579.16
2022-08-28T13:51:59.174Z,97588.81
2022-08-28T13:54:28.097Z,97589.34
2022-08-28T13:56:56.385Z,97583.77
2022-08-28T13:59:24.686Z,97577.24
2022-08-28T14:02:15.238Z,97580.10
2022-08-28T14:04:44.058Z,97587.77
2022-08-28T14:07:14.023Z,97588.48
2022-08-28T14:09:42.485Z,97598.27
2022-08-28T14:12:11.320Z,97603.30
2022-08-28T14:14:39.776Z,97616.82
2022-08-28T14:17:09.973Z,97616.84
2022-08-28T14:19:38.041Z,97622.97
2022-08-28T14:22:06.068Z,97621.13
2022-08-28T14:24:34.096Z,97628.11
2022-08-28T14:27:02.853Z,97633.59
2022-08-28T14:29:31.850Z,97644.04
2022-08-28T14:32:00.333Z,97649.84
2022-08-28T14:34:28.374Z,97644.64
2022-08-28T14:36:56.365Z,97649.81
2022-08-28T14:39:26.758Z,97665.02
2022-08-28T14:41:55.265Z,97653.02
2022-08-28T14:44:25.305Z,97657.80
2022-08-28T14:46:56.139Z,97657.45
2022-08-28T14:49:26.987Z,97659.95
2022-08-28T14:51:57.143Z,97662.54
2022-08-28T14:54:26.234Z,97664.55
2022-08-28T14:56:55.313Z,97669.57
2022-08-28T14:59:26.434Z,97672.81
2022-08-28T15:02:00.610Z,97678.05
2022-08-28T15:04:34.873Z,97681.11
2022-08-28T15:07:07.906Z,97681.02
2022-08-28T15:09:39.342Z,97693.34
2022-08-28T15:12:08.167Z,97707.00
2022-08-28T15:14:36.567Z,97711.09
2022-08-28T15:17:04.782Z,97715.78
2022-08-28T15:19:32.892Z,97721.10
2022-08-28T15:22:00.989Z,97729.64
2022-08-28T15:24:31.563Z,97717.82
2022-08-28T15:26:59.830Z,97720.14
2022-08-28T15:29:30.093Z,97720.10
2022-08-28T15:31:58.436Z,97717.36
2022-08-28T15:34:28.569Z,97718.76
2022-08-28T15:36:57.668Z,97723.58
2022-08-28T15:39:46.358Z,97723.75
2022-08-28T15:42:14.996Z,97730.83
2022-08-28T15:44:43.606Z,97729.48
2022-08-28T15:47:14.050Z,97741.36
2022-08-28T15:49:48.723Z,97745.68
2022-08-28T15:52:19.260Z,97741.77
2022-08-28T15:54:49.790Z,97740.94
2022-08-28T15:57:18.537Z,97745.63
2022-08-28T15:59:50.125Z,97741.46
2022-08-28T16:02:22.435Z,97735.96
2022-08-28T16:04:52.290Z,97729.41
2022-08-28T16:07:22.042Z,97729.24
2022-08-28T16:09:50.778Z,97729.38
2022-08-28T16:12:19.210Z,97728.49
2022-08-28T16:14:47.298Z,97728.86
2022-08-28T16:17:15.783Z,97716.98
2022-08-28T16:19:45.373Z,97714.91
2022-08-28T16:22:16.189Z,97709.17
2022-08-28T16:24:45.630Z,97703.85
2022-08-28T16:27:15.622Z,97699.92
2022-08-28T16:29:45.205Z,97696.21
2022-08-28T16:32:13.355Z,97692.75
2022-08-28T16:34:44.950Z,97689.00
2022-08-28T16:37:13.411Z,97688.70
2022-08-28T16:39:46.714Z,97682.65
2022-08-28T16:42:15.445Z,97684.86
2022-08-28T16:44:43.404Z,97681.44
2022-08-28T16:47:11.432Z,97681.02
2022-08-28T16:49:39.443Z,97676.23
2022-08-28T16:52:07.325Z,97679.89
2022-08-28T16:54:35.399Z,97680.14
2022-08-28T16:57:03.439Z,97678.15
2022-08-28T16:59:31.831Z,97679.76
2022-08-28T17:02:00.026Z,97682.02
2022-08-28T17:04:28.220Z,97686.02
2022-08-28T17:06:56.327Z,97691.42
2022-08-28T17:09:25.054Z,97695.39
2022-08-28T17:11:53.928Z,97696.34
2022-08-28T17:14:22.681Z,97701.02
2022-08-28T17:16:51.654Z,97706.86
2022-08-28T17:19:21.164Z,97713.64
2022-08-28T17:22:08.325Z,97713.15
2022-08-28T17:24:37.072Z,97718.45
2022-08-28T17:27:05.990Z,97723.16
2022-08-28T17:29:36.605Z,97724.85
2022-08-28T17:32:08.043Z,97724.82
2022-08-28T17:34:36.295Z,97727.95
2022-08-28T17:37:05.270Z,97728.91
2022-08-28T17:39:33.511Z,97729.44
2022-08-28T17:42:04.420Z,97733.14
2022-08-28T17:44:32.643Z,97734.94
2022-08-28T17:47:01.216Z,97732.91
2022-08-28T17:49:29.565Z,97736.39
2022-08-28T17:51:58.015Z,97732.98
2022-08-28T17:54:26.673Z,97726.90
2022-08-28T17:56:55.654Z,97723.73
2022-08-28T17:59:25.847Z,97720.36
2022-08-28T18:01:55.122Z,97715.50
2022-08-28T18:04:24.626Z,97717.89
2022-08-28T18:06:55.021Z,97721.12
2022-08-28T18:09:24.461Z,97722.73
2022-08-28T18:11:53.295Z,97731.86
2022-08-28T18:14:22.069Z,97730.73
2022-08-28T18:16:51.199Z,97731.00
2022-08-28T18:19:20.464Z,97732.58
2022-08-28T18:21:48.686Z,97741.50
2022-08-28T18:24:17.586Z,97745.73
2022-08-28T18:26:47.685Z,97744.55
2022-08-28T18:29:16.033Z,97747.78
2022-08-28T18:31:44.401Z,97749.71
2022-08-28T18:34:12.787Z,97753.30
2022-08-28T18:36:43.391Z,97750.78
2022-08-28T18:39:11.699Z,97746.99
2022-08-28T18:41:44.159Z,97749.27
2022-08-28T18:44:14.988Z,97754.23
2022-08-28T18:46:44.277Z,97756.04
2022-08-28T18:49:13.445Z,97761.65
2022-08-28T18:51:43.741Z,97763.30
2022-08-28T18:54:15.987Z,97769.30
2022-08-28T18:56:47.566Z,97770.33
2022-08-28T18:59:18.942Z,97768.52
2022-08-28T19:01:47.284Z,97768.30
2022-08-28T19:04:15.742Z,97774.27
2022-08-28T19:06:44.425Z,97776.83
2022-08-28T19:09:19.289Z,97778.77
2022-08-28T19:11:49.306Z,97781.03
2022-08-28T19:14:17.640Z,97782.70
2022-08-28T19:16:46.388Z,97781.16
2022-08-28T19:19:15.621Z,97783.50
2022-08-28T19:21:44.359Z,97784.39
2022-08-28T19:24:16.689Z,97785.02
2022-08-28T19:26:46.515Z,97787.66
2022-08-28T19:29:17.038Z,97788.66
2022-08-28T19:31:45.342Z,97791.81
2022-08-28T19:34:13.627Z,97789.98
2022-08-28T19:36:42.151Z,97789.98
2022-08-28T19:39:10.409Z,97791.02
2022-08-28T19:41:39.669Z,97790.94
2022-08-28T19:44:09.011Z,97791.70
2022-08-28T19:46:39.059Z,97793.77
2022-08-28T19:49:07.941Z,97784.43
2022-08-28T19:51:39.149Z,97798.80
2022-08-28T19:54:11.469Z,97796.29
2022-08-28T19:56:40.294Z,97795.95
2022-08-28T19:59:10.563Z,97794.08
2022-08-28T20:01:40.908Z,97795.48
2022-08-28T20:04:09.709Z,97795.89
2022-08-28T20:06:37.710Z,97788.78
2022-08-28T20:09:12.053Z,97791.02
2022-08-28T20:11:44.311Z,97791.58
2022-08-28T20:14:14.175Z,97786.40
2022-08-28T20:16:47.181Z,97786.45
2022-08-28T20:19:15.644Z,97789.16
2022-08-28T20:21:44.793Z,97790.80
2022-08-28T20:24:17.630Z,97795.69
2022-08-28T20:26:45.609Z,97795.80
2022-08-28T20:29:14.864Z,97792.95
2022-08-28T20:31:46.450Z,97794.83
2022-08-28T20:34:18.030Z,97796.50
2022-08-28T20:36:46.445Z,97796.65
2022-08-28T20:39:15.631Z,97798.55
2022-08-28T20:41:44.951Z,97802.90
2022-08-28T20:44:15.676Z,97802.04
2022-08-28T20:46:44.458Z,97807.09
2022-08-28T20:49:24.007Z,97810.14
2022-08-28T20:51:58.966Z,97812.86
2022-08-28T20:54:26.953Z,97811.84
2022-08-28T20:57:01.727Z,97813.95
2022-08-28T20:59:39.384Z,97812.11
2022-08-28T21:02:24.200Z,97812.23
2022-08-28T21:04:53.564Z,97806.49
2022-08-28T21:07:24.276Z,97811.50
2022-08-28T21:10:05.761Z,97814.08
2022-08-28T21:12:38.608Z,97815.02
2022-08-28T21:15:09.271Z,97816.55
2022-08-28T21:17:37.407Z,97820.91
2022-08-28T21:20:11.501Z,97822.64
2022-08-28T21:22:39.730Z,97822.17
2022-08-28T21:25:10.559Z,97827.60
2022-08-28T21:27:39.087Z,97826.86
2022-08-28T21:30:09.038Z,97830.77
2022-08-28T21:32:37.306Z,97830.59
2022-08-28T21:35:07.416Z,97834.60
2022-08-28T21:37:35.773Z,97832.73
2022-08-28T21:40:13.242Z,97837.15
2022-08-28T21:42:41.706Z,97838.66
2022-08-28T21:46:26.037Z,97837.27
2022-08-28T21:48:56.330Z,97835.74
2022-08-28T21:51:25.451Z,97839.32
2022-08-28T21:53:55.780Z,97836.48
2022-08-28T21:56:27.209Z,97835.70
2022-08-28T21:58:56.699Z,97831.95
2022-08-28T22:01:26.682Z,97831.78
2022-08-28T22:03:55.647Z,97833.25
2022-08-28T22:06:26.442Z,97831.70
2022-08-28T22:08:55.825Z,97832.48
2022-08-28T22:11:25.416Z,97831.64
2022-08-28T22:13:57.079Z,97829.02
2022-08-28T22:16:26.391Z,97830.92
2022-08-28T22:18:56.417Z,97833.55
2022-08-28T22:21:45.794Z,97836.02
2022-08-28T22:24:14.185Z,97833.11
2022-08-28T22:26:43.984Z,97833.14
2022-08-28T22:29:12.489Z,97837.69
2022-08-28T22:31:45.618Z,97836.20
2022-08-28T22:34:14.750Z,97839.39
2022-08-28T22:36:42.720Z,97842.89
2022-08-28T22:39:10.688Z,97845.73
2022-08-28T22:41:38.779Z,97848.59
2022-08-28T22:44:07.341Z,97845.77
2022-08-28T22:46:36.091Z,97846.38
2022-08-28T22:49:05.136Z,97846.33
2022-08-28T22:51:34.654Z,97848.51
2022-08-28T22:54:02.720Z,97849.67
2022-08-28T22:56:30.695Z,97853.05
2022-08-28T22:58:58.784Z,97852.64
2022-08-28T23:01:26.930Z,97854.63
2022-08-28T23:03:55.195Z,97858.42
2022-08-28T23:06:23.311Z,97858.40
2022-08-28T23:08:51.322Z,97861.61
2022-08-28T23:11:19.281Z,97867.44
2022-08-28T23:13:47.397Z,97871.33
2022-08-28T23:16:23.996Z,97870.80
2022-08-28T23:19:07.859Z,97872.27
2022-08-28T23:21:43.471Z,97874.94
2022-08-28T23:24:16.268Z,97875.70
2022-08-28T23:26:45.662Z,97873.48
2022-08-28T23:29:15.121Z,97875.38
2022-08-28T23:31:43.170Z,97871.04
2022-08-28T23:34:11.482Z,97874.81
2022-08-28T23:36:42.905Z,97875.08
2022-08-28T23:39:11.605Z,97872.44
2022-08-28T23:41:40.099Z,97876.95
2022-08-28T23:44:09.512Z,97873.55
2022-08-28T23:46:41.794Z,97871.80
2022-08-28T23:49:11.408Z,97871.00
2022-08-28T23:51:43.027Z,97871.49
2022-08-28T23:54:11.525Z,97868.64
2022-08-28T23:56:39.485Z,97872.58
2022-08-28T23:59:07.596Z,97870.62
